sensor_id;sensor_type;location;lat;lon;timestamp;P1;durP1;ratioP1;P2;durP2;ratioP2
4053;SDS011;2042;47.956;9.222;2022-07-21T00:01:18;0.60;;;0.40;;
4053;SDS011;2042;47.956;9.222;2022-07-21T00:03:43;0.97;;;0.90;;
4053;SDS011;2042;47.956;9.222;2022-07-21T00:06:09;0.60;;;0.40;;
4053;SDS011;2042;47.956;9.222;2022-07-21T00:08:35;1.50;;;1.40;;
4053;SDS011;2042;47.956;9.222;2022-07-21T00:11:01;0.60;;;0.50;;
4053;SDS011;2042;47.956;9.222;2022-07-21T00:13:27;0.60;;;0.50;;
4053;SDS011;2042;47.956;9.222;2022-07-21T00:15:53;0.60;;;0.50;;
4053;SDS011;2042;47.956;9.222;2022-07-21T00:18:19;0.60;;;0.50;;
4053;SDS011;2042;47.956;9.222;2022-07-21T00:20:45;0.60;;;0.57;;
4053;SDS011;2042;47.956;9.222;2022-07-21T00:23:11;0.60;;;0.50;;
4053;SDS011;2042;47.956;9.222;2022-07-21T00:25:37;0.60;;;0.50;;
4053;SDS011;2042;47.956;9.222;2022-07-21T00:28:03;0.80;;;0.80;;
4053;SDS011;2042;47.956;9.222;2022-07-21T00:30:29;0.60;;;0.47;;
4053;SDS011;2042;47.956;9.222;2022-07-21T00:32:55;0.63;;;0.63;;
4053;SDS011;2042;47.956;9.222;2022-07-21T00:35:21;1.20;;;1.10;;
4053;SDS011;2042;47.956;9.222;2022-07-21T00:37:47;0.60;;;0.50;;
4053;SDS011;2042;47.956;9.222;2022-07-21T00:40:13;1.10;;;1.10;;
4053;SDS011;2042;47.956;9.222;2022-07-21T00:42:40;0.60;;;0.40;;
4053;SDS011;2042;47.956;9.222;2022-07-21T00:45:07;3.37;;;1.00;;
4053;SDS011;2042;47.956;9.222;2022-07-21T00:47:34;2.40;;;2.20;;
4053;SDS011;2042;47.956;9.222;2022-07-21T00:50:00;0.60;;;0.50;;
4053;SDS011;2042;47.956;9.222;2022-07-21T00:52:28;0.60;;;0.50;;
4053;SDS011;2042;47.956;9.222;2022-07-21T00:54:54;0.60;;;0.50;;
4053;SDS011;2042;47.956;9.222;2022-07-21T00:57:20;0.60;;;0.40;;
4053;SDS011;2042;47.956;9.222;2022-07-21T00:59:46;0.60;;;0.50;;
4053;SDS011;2042;47.956;9.222;2022-07-21T01:02:12;0.60;;;0.50;;
4053;SDS011;2042;47.956;9.222;2022-07-21T01:04:38;0.60;;;0.50;;
4053;SDS011;2042;47.956;9.222;2022-07-21T01:07:05;0.60;;;0.60;;
4053;SDS011;2042;47.956;9.222;2022-07-21T01:09:32;0.60;;;0.40;;
4053;SDS011;2042;47.956;9.222;2022-07-21T01:11:58;0.83;;;0.83;;
4053;SDS011;2042;47.956;9.222;2022-07-21T01:14:24;0.60;;;0.47;;
4053;SDS011;2042;47.956;9.222;2022-07-21T01:16:50;0.60;;;0.50;;
4053;SDS011;2042;47.956;9.222;2022-07-21T01:19:16;2.00;;;1.90;;
4053;SDS011;2042;47.956;9.222;2022-07-21T01:21:43;0.60;;;0.47;;
4053;SDS011;2042;47.956;9.222;2022-07-21T01:24:10;1.03;;;0.97;;
4053;SDS011;2042;47.956;9.222;2022-07-21T01:26:40;0.60;;;0.40;;
4053;SDS011;2042;47.956;9.222;2022-07-21T01:29:11;1.13;;;1.13;;
4053;SDS011;2042;47.956;9.222;2022-07-21T01:31:38;0.60;;;0.50;;
4053;SDS011;2042;47.956;9.222;2022-07-21T01:34:06;0.60;;;0.50;;
4053;SDS011;2042;47.956;9.222;2022-07-21T01:36:31;0.60;;;0.40;;
4053;SDS011;2042;47.956;9.222;2022-07-21T01:38:57;0.97;;;0.97;;
4053;SDS011;2042;47.956;9.222;2022-07-21T01:41:41;0.60;;;0.50;;
4053;SDS011;2042;47.956;9.222;2022-07-21T01:44:08;0.60;;;0.50;;
4053;SDS011;2042;47.956;9.222;2022-07-21T01:46:40;0.93;;;0.93;;
4053;SDS011;2042;47.956;9.222;2022-07-21T01:49:10;2.30;;;2.20;;
4053;SDS011;2042;47.956;9.222;2022-07-21T01:51:37;0.90;;;0.90;;
4053;SDS011;2042;47.956;9.222;2022-07-21T01:54:04;0.60;;;0.50;;
4053;SDS011;2042;47.956;9.222;2022-07-21T01:56:32;0.60;;;0.50;;
4053;SDS011;2042;47.956;9.222;2022-07-21T01:58:58;0.60;;;0.60;;
4053;SDS011;2042;47.956;9.222;2022-07-21T02:01:25;1.73;;;1.63;;
4053;SDS011;2042;47.956;9.222;2022-07-21T02:03:52;1.90;;;1.17;;
4053;SDS011;2042;47.956;9.222;2022-07-21T02:06:18;1.37;;;1.23;;
4053;SDS011;2042;47.956;9.222;2022-07-21T02:08:44;0.80;;;0.60;;
4053;SDS011;2042;47.956;9.222;2022-07-21T02:11:10;0.80;;;0.80;;
4053;SDS011;2042;47.956;9.222;2022-07-21T02:13:37;0.60;;;0.50;;
4053;SDS011;2042;47.956;9.222;2022-07-21T02:16:03;0.70;;;0.70;;
4053;SDS011;2042;47.956;9.222;2022-07-21T02:18:29;0.60;;;0.40;;
4053;SDS011;2042;47.956;9.222;2022-07-21T02:20:55;0.60;;;0.60;;
4053;SDS011;2042;47.956;9.222;2022-07-21T02:23:22;1.37;;;1.27;;
4053;SDS011;2042;47.956;9.222;2022-07-21T02:25:48;1.90;;;1.80;;
4053;SDS011;2042;47.956;9.222;2022-07-21T02:28:15;0.60;;;0.50;;
4053;SDS011;2042;47.956;9.222;2022-07-21T02:30:41;0.60;;;0.50;;
4053;SDS011;2042;47.956;9.222;2022-07-21T02:33:07;0.60;;;0.50;;
4053;SDS011;2042;47.956;9.222;2022-07-21T02:35:32;0.77;;;0.77;;
4053;SDS011;2042;47.956;9.222;2022-07-21T02:37:58;0.70;;;0.70;;
4053;SDS011;2042;47.956;9.222;2022-07-21T02:40:24;0.60;;;0.50;;
4053;SDS011;2042;47.956;9.222;2022-07-21T02:42:50;0.87;;;0.87;;
4053;SDS011;2042;47.956;9.222;2022-07-21T02:45:15;0.60;;;0.40;;
4053;SDS011;2042;47.956;9.222;2022-07-21T02:48:14;0.60;;;0.40;;
4053;SDS011;2042;47.956;9.222;2022-07-21T02:50:35;0.70;;;0.60;;
4053;SDS011;2042;47.956;9.222;2022-07-21T02:53:04;0.60;;;0.50;;
4053;SDS011;2042;47.956;9.222;2022-07-21T02:55:34;0.60;;;0.50;;
4053;SDS011;2042;47.956;9.222;2022-07-21T03:00:44;0.70;;;0.60;;
4053;SDS011;2042;47.956;9.222;2022-07-21T03:03:14;0.60;;;0.43;;
4053;SDS011;2042;47.956;9.222;2022-07-21T03:05:40;2.60;;;0.93;;
4053;SDS011;2042;47.956;9.222;2022-07-21T03:08:07;0.60;;;0.40;;
4053;SDS011;2042;47.956;9.222;2022-07-21T03:10:33;0.60;;;0.50;;
4053;SDS011;2042;47.956;9.222;2022-07-21T03:12:59;0.60;;;0.40;;
4053;SDS011;2042;47.956;9.222;2022-07-21T03:15:25;0.60;;;0.50;;
4053;SDS011;2042;47.956;9.222;2022-07-21T03:17:52;1.37;;;1.27;;
4053;SDS011;2042;47.956;9.222;2022-07-21T03:20:22;0.60;;;0.50;;
4053;SDS011;2042;47.956;9.222;2022-07-21T03:22:51;2.50;;;2.30;;
4053;SDS011;2042;47.956;9.222;2022-07-21T03:25:17;2.57;;;2.07;;
4053;SDS011;2042;47.956;9.222;2022-07-21T03:27:44;0.70;;;0.70;;
4053;SDS011;2042;47.956;9.222;2022-07-21T03:30:11;0.70;;;0.70;;
4053;SDS011;2042;47.956;9.222;2022-07-21T03:32:37;0.60;;;0.50;;
4053;SDS011;2042;47.956;9.222;2022-07-21T03:35:03;0.60;;;0.40;;
4053;SDS011;2042;47.956;9.222;2022-07-21T03:37:31;0.73;;;0.73;;
4053;SDS011;2042;47.956;9.222;2022-07-21T03:39:56;0.67;;;0.63;;
4053;SDS011;2042;47.956;9.222;2022-07-21T03:42:22;0.60;;;0.50;;
4053;SDS011;2042;47.956;9.222;2022-07-21T03:44:48;1.53;;;1.27;;
4053;SDS011;2042;47.956;9.222;2022-07-21T03:47:14;0.60;;;0.40;;
4053;SDS011;2042;47.956;9.222;2022-07-21T03:49:40;1.10;;;1.00;;
4053;SDS011;2042;47.956;9.222;2022-07-21T03:52:07;0.60;;;0.50;;
4053;SDS011;2042;47.956;9.222;2022-07-21T03:54:32;0.60;;;0.50;;
4053;SDS011;2042;47.956;9.222;2022-07-21T03:56:58;0.80;;;0.80;;
4053;SDS011;2042;47.956;9.222;2022-07-21T03:59:24;0.90;;;0.90;;
4053;SDS011;2042;47.956;9.222;2022-07-21T04:01:49;0.60;;;0.50;;
4053;SDS011;2042;47.956;9.222;2022-07-21T04:04:15;1.73;;;1.60;;
4053;SDS011;2042;47.956;9.222;2022-07-21T04:06:41;1.67;;;1.57;;
4053;SDS011;2042;47.956;9.222;2022-07-21T04:09:06;3.90;;;3.43;;
4053;SDS011;2042;47.956;9.222;2022-07-21T04:11:32;2.53;;;2.40;;
4053;SDS011;2042;47.956;9.222;2022-07-21T04:13:58;0.60;;;0.50;;
4053;SDS011;2042;47.956;9.222;2022-07-21T04:16:24;2.23;;;2.10;;
4053;SDS011;2042;47.956;9.222;2022-07-21T04:18:50;0.60;;;0.50;;
4053;SDS011;2042;47.956;9.222;2022-07-21T04:21:16;0.60;;;0.60;;
4053;SDS011;2042;47.956;9.222;2022-07-21T04:23:41;1.23;;;1.13;;
4053;SDS011;2042;47.956;9.222;2022-07-21T04:26:07;1.33;;;1.33;;
4053;SDS011;2042;47.956;9.222;2022-07-21T04:28:33;0.60;;;0.50;;
4053;SDS011;2042;47.956;9.222;2022-07-21T04:30:58;1.23;;;1.13;;
4053;SDS011;2042;47.956;9.222;2022-07-21T04:33:24;1.40;;;1.33;;
4053;SDS011;2042;47.956;9.222;2022-07-21T04:35:50;1.03;;;1.03;;
4053;SDS011;2042;47.956;9.222;2022-07-21T04:38:15;2.67;;;2.20;;
4053;SDS011;2042;47.956;9.222;2022-07-21T04:40:42;1.37;;;1.27;;
4053;SDS011;2042;47.956;9.222;2022-07-21T04:43:08;0.60;;;0.60;;
4053;SDS011;2042;47.956;9.222;2022-07-21T04:45:34;0.77;;;0.77;;
4053;SDS011;2042;47.956;9.222;2022-07-21T04:47:59;1.67;;;1.60;;
4053;SDS011;2042;47.956;9.222;2022-07-21T04:50:26;0.60;;;0.50;;
4053;SDS011;2042;47.956;9.222;2022-07-21T04:52:53;0.70;;;0.67;;
4053;SDS011;2042;47.956;9.222;2022-07-21T04:55:19;0.60;;;0.43;;
4053;SDS011;2042;47.956;9.222;2022-07-21T04:57:46;0.60;;;0.53;;
4053;SDS011;2042;47.956;9.222;2022-07-21T05:00:14;0.60;;;0.50;;
4053;SDS011;2042;47.956;9.222;2022-07-21T05:02:42;1.30;;;1.20;;
4053;SDS011;2042;47.956;9.222;2022-07-21T05:05:09;0.60;;;0.50;;
4053;SDS011;2042;47.956;9.222;2022-07-21T05:07:35;2.73;;;2.60;;
4053;SDS011;2042;47.956;9.222;2022-07-21T05:10:07;1.13;;;1.03;;
4053;SDS011;2042;47.956;9.222;2022-07-21T05:12:34;0.70;;;0.50;;
4053;SDS011;2042;47.956;9.222;2022-07-21T05:15:00;0.60;;;0.50;;
4053;SDS011;2042;47.956;9.222;2022-07-21T05:17:26;2.33;;;2.13;;
4053;SDS011;2042;47.956;9.222;2022-07-21T05:19:52;0.60;;;0.50;;
4053;SDS011;2042;47.956;9.222;2022-07-21T05:22:37;0.80;;;0.80;;
4053;SDS011;2042;47.956;9.222;2022-07-21T05:25:04;0.70;;;0.70;;
4053;SDS011;2042;47.956;9.222;2022-07-21T05:27:30;0.70;;;0.70;;
4053;SDS011;2042;47.956;9.222;2022-07-21T05:29:56;1.00;;;1.00;;
4053;SDS011;2042;47.956;9.222;2022-07-21T05:32:22;0.60;;;0.50;;
4053;SDS011;2042;47.956;9.222;2022-07-21T05:34:48;0.60;;;0.50;;
4053;SDS011;2042;47.956;9.222;2022-07-21T05:37:13;0.83;;;0.83;;
4053;SDS011;2042;47.956;9.222;2022-07-21T05:39:39;0.60;;;0.40;;
4053;SDS011;2042;47.956;9.222;2022-07-21T05:42:05;2.40;;;2.30;;
4053;SDS011;2042;47.956;9.222;2022-07-21T05:44:31;0.60;;;0.50;;
4053;SDS011;2042;47.956;9.222;2022-07-21T05:46:57;1.90;;;1.80;;
4053;SDS011;2042;47.956;9.222;2022-07-21T05:49:23;0.70;;;0.70;;
4053;SDS011;2042;47.956;9.222;2022-07-21T05:51:49;0.60;;;0.50;;
4053;SDS011;2042;47.956;9.222;2022-07-21T05:54:14;0.60;;;0.50;;
4053;SDS011;2042;47.956;9.222;2022-07-21T05:56:40;0.70;;;0.70;;
4053;SDS011;2042;47.956;9.222;2022-07-21T05:59:06;1.15;;;1.05;;
4053;SDS011;2042;47.956;9.222;2022-07-21T06:01:32;0.90;;;0.90;;
4053;SDS011;2042;47.956;9.222;2022-07-21T06:03:58;1.00;;;1.00;;
4053;SDS011;2042;47.956;9.222;2022-07-21T06:06:24;1.80;;;1.37;;
4053;SDS011;2042;47.956;9.222;2022-07-21T06:08:50;0.60;;;0.50;;
4053;SDS011;2042;47.956;9.222;2022-07-21T06:11:17;0.70;;;0.60;;
4053;SDS011;2042;47.956;9.222;2022-07-21T06:13:44;0.70;;;0.50;;
4053;SDS011;2042;47.956;9.222;2022-07-21T06:16:11;2.40;;;1.03;;
4053;SDS011;2042;47.956;9.222;2022-07-21T06:18:37;0.60;;;0.60;;
4053;SDS011;2042;47.956;9.222;2022-07-21T06:21:03;0.60;;;0.50;;
4053;SDS011;2042;47.956;9.222;2022-07-21T06:23:30;0.63;;;0.50;;
4053;SDS011;2042;47.956;9.222;2022-07-21T06:25:56;0.67;;;0.50;;
4053;SDS011;2042;47.956;9.222;2022-07-21T06:28:22;0.60;;;0.50;;
4053;SDS011;2042;47.956;9.222;2022-07-21T06:30:48;0.70;;;0.53;;
4053;SDS011;2042;47.956;9.222;2022-07-21T06:33:15;0.70;;;0.60;;
4053;SDS011;2042;47.956;9.222;2022-07-21T06:35:44;0.60;;;0.50;;
4053;SDS011;2042;47.956;9.222;2022-07-21T06:38:10;0.70;;;0.60;;
4053;SDS011;2042;47.956;9.222;2022-07-21T06:40:35;1.13;;;1.07;;
4053;SDS011;2042;47.956;9.222;2022-07-21T06:43:01;0.70;;;0.47;;
4053;SDS011;2042;47.956;9.222;2022-07-21T06:45:27;1.13;;;1.03;;
4053;SDS011;2042;47.956;9.222;2022-07-21T06:48:06;0.70;;;0.60;;
4053;SDS011;2042;47.956;9.222;2022-07-21T06:50:33;0.70;;;0.50;;
4053;SDS011;2042;47.956;9.222;2022-07-21T06:52:59;1.20;;;1.10;;
4053;SDS011;2042;47.956;9.222;2022-07-21T06:55:26;0.70;;;0.63;;
4053;SDS011;2042;47.956;9.222;2022-07-21T06:57:52;0.70;;;0.70;;
4053;SDS011;2042;47.956;9.222;2022-07-21T07:00:18;0.70;;;0.57;;
4053;SDS011;2042;47.956;9.222;2022-07-21T07:02:44;0.77;;;0.73;;
4053;SDS011;2042;47.956;9.222;2022-07-21T07:05:10;0.97;;;0.97;;
4053;SDS011;2042;47.956;9.222;2022-07-21T07:07:36;1.33;;;1.03;;
4053;SDS011;2042;47.956;9.222;2022-07-21T07:10:03;0.70;;;0.50;;
4053;SDS011;2042;47.956;9.222;2022-07-21T07:12:29;0.70;;;0.70;;
4053;SDS011;2042;47.956;9.222;2022-07-21T07:14:54;0.70;;;0.50;;
4053;SDS011;2042;47.956;9.222;2022-07-21T07:17:20;16.33;;;14.90;;
4053;SDS011;2042;47.956;9.222;2022-07-21T07:19:46;16.67;;;15.20;;
4053;SDS011;2042;47.956;9.222;2022-07-21T07:22:13;17.27;;;15.67;;
4053;SDS011;2042;47.956;9.222;2022-07-21T07:24:39;17.17;;;15.67;;
4053;SDS011;2042;47.956;9.222;2022-07-21T07:27:05;15.37;;;13.87;;
4053;SDS011;2042;47.956;9.222;2022-07-21T07:29:31;19.30;;;14.73;;
4053;SDS011;2042;47.956;9.222;2022-07-21T07:31:58;17.10;;;15.50;;
4053;SDS011;2042;47.956;9.222;2022-07-21T07:34:24;19.93;;;15.90;;
4053;SDS011;2042;47.956;9.222;2022-07-21T07:36:50;19.37;;;15.53;;
4053;SDS011;2042;47.956;9.222;2022-07-21T07:39:16;17.60;;;16.00;;
4053;SDS011;2042;47.956;9.222;2022-07-21T07:41:42;15.87;;;14.30;;
4053;SDS011;2042;47.956;9.222;2022-07-21T07:44:08;15.10;;;13.73;;
4053;SDS011;2042;47.956;9.222;2022-07-21T07:46:35;16.07;;;14.77;;
4053;SDS011;2042;47.956;9.222;2022-07-21T07:49:01;15.93;;;14.33;;
4053;SDS011;2042;47.956;9.222;2022-07-21T07:51:27;15.07;;;13.67;;
4053;SDS011;2042;47.956;9.222;2022-07-21T07:53:53;13.80;;;12.60;;
4053;SDS011;2042;47.956;9.222;2022-07-21T07:56:19;14.83;;;13.50;;
4053;SDS011;2042;47.956;9.222;2022-07-21T07:58:45;15.87;;;14.37;;
4053;SDS011;2042;47.956;9.222;2022-07-21T08:01:10;13.20;;;12.10;;
4053;SDS011;2042;47.956;9.222;2022-07-21T08:03:36;12.47;;;11.37;;
4053;SDS011;2042;47.956;9.222;2022-07-21T08:06:02;13.73;;;12.47;;
4053;SDS011;2042;47.956;9.222;2022-07-21T08:08:32;13.60;;;12.30;;
4053;SDS011;2042;47.956;9.222;2022-07-21T08:10:59;13.27;;;12.03;;
4053;SDS011;2042;47.956;9.222;2022-07-21T08:13:25;12.30;;;11.20;;
4053;SDS011;2042;47.956;9.222;2022-07-21T08:15:51;11.60;;;10.50;;
4053;SDS011;2042;47.956;9.222;2022-07-21T08:18:17;13.00;;;11.90;;
4053;SDS011;2042;47.956;9.222;2022-07-21T08:20:44;14.13;;;12.80;;
4053;SDS011;2042;47.956;9.222;2022-07-21T08:23:11;14.13;;;12.03;;
4053;SDS011;2042;47.956;9.222;2022-07-21T08:25:38;13.40;;;12.20;;
4053;SDS011;2042;47.956;9.222;2022-07-21T08:28:04;12.80;;;11.50;;
4053;SDS011;2042;47.956;9.222;2022-07-21T08:30:30;12.17;;;11.07;;
4053;SDS011;2042;47.956;9.222;2022-07-21T08:32:57;12.03;;;11.13;;
4053;SDS011;2042;47.956;9.222;2022-07-21T08:35:24;12.27;;;11.10;;
4053;SDS011;2042;47.956;9.222;2022-07-21T08:38:23;12.93;;;11.00;;
4053;SDS011;2042;47.956;9.222;2022-07-21T08:40:44;18.53;;;11.90;;
4053;SDS011;2042;47.956;9.222;2022-07-21T08:43:11;12.37;;;11.23;;
4053;SDS011;2042;47.956;9.222;2022-07-21T08:45:39;11.77;;;10.57;;
4053;SDS011;2042;47.956;9.222;2022-07-21T08:48:06;10.67;;;9.60;;
4053;SDS011;2042;47.956;9.222;2022-07-21T08:50:36;11.10;;;10.10;;
4053;SDS011;2042;47.956;9.222;2022-07-21T08:53:03;11.00;;;10.20;;
4053;SDS011;2042;47.956;9.222;2022-07-21T08:55:30;12.60;;;11.60;;
4053;SDS011;2042;47.956;9.222;2022-07-21T08:57:57;12.43;;;11.43;;
4053;SDS011;2042;47.956;9.222;2022-07-21T09:00:23;12.00;;;11.03;;
4053;SDS011;2042;47.956;9.222;2022-07-21T09:02:49;12.10;;;11.10;;
4053;SDS011;2042;47.956;9.222;2022-07-21T09:05:32;13.20;;;11.87;;
4053;SDS011;2042;47.956;9.222;2022-07-21T09:07:57;11.80;;;10.80;;
4053;SDS011;2042;47.956;9.222;2022-07-21T09:10:24;12.30;;;10.93;;
4053;SDS011;2042;47.956;9.222;2022-07-21T09:12:52;12.53;;;11.43;;
4053;SDS011;2042;47.956;9.222;2022-07-21T09:15:23;13.37;;;12.17;;
4053;SDS011;2042;47.956;9.222;2022-07-21T09:20:48;12.70;;;11.70;;
4053;SDS011;2042;47.956;9.222;2022-07-21T09:23:17;13.63;;;10.90;;
4053;SDS011;2042;47.956;9.222;2022-07-21T09:28:23;11.27;;;10.37;;
4053;SDS011;2042;47.956;9.222;2022-07-21T09:31:00;11.33;;;10.23;;
4053;SDS011;2042;47.956;9.222;2022-07-21T09:36:01;11.33;;;10.50;;
4053;SDS011;2042;47.956;9.222;2022-07-21T09:38:31;10.40;;;9.50;;
4053;SDS011;2042;47.956;9.222;2022-07-21T09:43:39;10.70;;;9.90;;
4053;SDS011;2042;47.956;9.222;2022-07-21T09:46:12;10.90;;;10.00;;
4053;SDS011;2042;47.956;9.222;2022-07-21T09:48:39;9.93;;;8.93;;
4053;SDS011;2042;47.956;9.222;2022-07-21T09:51:21;10.30;;;9.40;;
4053;SDS011;2042;47.956;9.222;2022-07-21T09:54:20;12.13;;;11.13;;
4053;SDS011;2042;47.956;9.222;2022-07-21T09:56:43;9.57;;;8.87;;
4053;SDS011;2042;47.956;9.222;2022-07-21T09:59:10;9.40;;;8.50;;
4053;SDS011;2042;47.956;9.222;2022-07-21T10:01:38;9.33;;;8.53;;
4053;SDS011;2042;47.956;9.222;2022-07-21T10:04:04;10.10;;;9.30;;
4053;SDS011;2042;47.956;9.222;2022-07-21T10:06:32;8.80;;;8.13;;
4053;SDS011;2042;47.956;9.222;2022-07-21T10:08:59;9.47;;;8.77;;
4053;SDS011;2042;47.956;9.222;2022-07-21T10:11:25;9.10;;;8.40;;
4053;SDS011;2042;47.956;9.222;2022-07-21T10:13:52;10.10;;;9.30;;
4053;SDS011;2042;47.956;9.222;2022-07-21T10:16:18;9.87;;;8.90;;
4053;SDS011;2042;47.956;9.222;2022-07-21T10:18:55;10.80;;;9.90;;
4053;SDS011;2042;47.956;9.222;2022-07-21T10:23:51;10.27;;;9.40;;
4053;SDS011;2042;47.956;9.222;2022-07-21T10:26:19;9.87;;;9.00;;
4053;SDS011;2042;47.956;9.222;2022-07-21T10:28:45;8.63;;;7.93;;
4053;SDS011;2042;47.956;9.222;2022-07-21T10:31:15;10.43;;;9.50;;
4053;SDS011;2042;47.956;9.222;2022-07-21T10:36:08;10.10;;;9.17;;
4053;SDS011;2042;47.956;9.222;2022-07-21T10:38:35;10.67;;;9.60;;
4053;SDS011;2042;47.956;9.222;2022-07-21T10:41:02;9.07;;;8.20;;
4053;SDS011;2042;47.956;9.222;2022-07-21T10:45:55;9.40;;;8.50;;
4053;SDS011;2042;47.956;9.222;2022-07-21T10:51:06;8.97;;;8.27;;
4053;SDS011;2042;47.956;9.222;2022-07-21T10:53:32;9.67;;;8.70;;
4053;SDS011;2042;47.956;9.222;2022-07-21T10:55:58;9.90;;;9.10;;
4053;SDS011;2042;47.956;9.222;2022-07-21T10:58:28;10.47;;;7.90;;
4053;SDS011;2042;47.956;9.222;2022-07-21T11:00:55;9.77;;;8.87;;
4053;SDS011;2042;47.956;9.222;2022-07-21T11:03:32;10.97;;;10.10;;
4053;SDS011;2042;47.956;9.222;2022-07-21T11:11:07;9.43;;;8.73;;
4053;SDS011;2042;47.956;9.222;2022-07-21T11:16:20;9.03;;;8.13;;
4053;SDS011;2042;47.956;9.222;2022-07-21T11:18:46;9.47;;;8.50;;
4053;SDS011;2042;47.956;9.222;2022-07-21T11:21:13;9.27;;;8.47;;
4053;SDS011;2042;47.956;9.222;2022-07-21T11:26:06;9.00;;;8.30;;
4053;SDS011;2042;47.956;9.222;2022-07-21T11:28:32;8.37;;;7.67;;
4053;SDS011;2042;47.956;9.222;2022-07-21T11:31:05;8.03;;;7.53;;
4053;SDS011;2042;47.956;9.222;2022-07-21T11:33:31;9.55;;;8.95;;
4053;SDS011;2042;47.956;9.222;2022-07-21T11:35:58;7.70;;;7.10;;
4053;SDS011;2042;47.956;9.222;2022-07-21T11:38:23;8.50;;;7.67;;
4053;SDS011;2042;47.956;9.222;2022-07-21T11:40:49;7.25;;;6.75;;
4053;SDS011;2042;47.956;9.222;2022-07-21T11:43:15;8.43;;;7.53;;
4053;SDS011;2042;47.956;9.222;2022-07-21T11:45:52;8.00;;;7.40;;
4053;SDS011;2042;47.956;9.222;2022-07-21T11:48:32;7.18;;;6.68;;
4053;SDS011;2042;47.956;9.222;2022-07-21T11:50:59;7.57;;;7.03;;
4053;SDS011;2042;47.956;9.222;2022-07-21T11:53:26;7.93;;;7.20;;
4053;SDS011;2042;47.956;9.222;2022-07-21T11:55:52;7.10;;;6.53;;
4053;SDS011;2042;47.956;9.222;2022-07-21T11:58:19;7.20;;;6.60;;
4053;SDS011;2042;47.956;9.222;2022-07-21T12:00:45;7.82;;;6.43;;
4053;SDS011;2042;47.956;9.222;2022-07-21T12:03:14;6.93;;;6.38;;
4053;SDS011;2042;47.956;9.222;2022-07-21T12:05:40;7.00;;;6.40;;
4053;SDS011;2042;47.956;9.222;2022-07-21T12:08:07;6.85;;;6.25;;
4053;SDS011;2042;47.956;9.222;2022-07-21T12:10:33;6.70;;;6.30;;
4053;SDS011;2042;47.956;9.222;2022-07-21T12:13:01;6.53;;;6.03;;
4053;SDS011;2042;47.956;9.222;2022-07-21T12:15:31;7.35;;;6.90;;
4053;SDS011;2042;47.956;9.222;2022-07-21T12:18:00;6.13;;;5.72;;
4053;SDS011;2042;47.956;9.222;2022-07-21T12:25:46;6.95;;;6.45;;
4053;SDS011;2042;47.956;9.222;2022-07-21T12:28:12;6.80;;;6.35;;
4053;SDS011;2042;47.956;9.222;2022-07-21T12:30:43;6.93;;;6.43;;
4053;SDS011;2042;47.956;9.222;2022-07-21T12:35:45;8.98;;;8.10;;
4053;SDS011;2042;47.956;9.222;2022-07-21T12:38:21;6.55;;;6.03;;
4053;SDS011;2042;47.956;9.222;2022-07-21T12:40:55;6.40;;;6.00;;
4053;SDS011;2042;47.956;9.222;2022-07-21T12:43:23;6.65;;;6.20;;
4053;SDS011;2042;47.956;9.222;2022-07-21T12:45:56;8.32;;;7.72;;
4053;SDS011;2042;47.956;9.222;2022-07-21T12:48:23;6.10;;;5.70;;
4053;SDS011;2042;47.956;9.222;2022-07-21T12:53:49;6.43;;;5.97;;
4053;SDS011;2042;47.956;9.222;2022-07-21T12:56:17;6.30;;;5.80;;
4053;SDS011;2042;47.956;9.222;2022-07-21T12:58:44;6.38;;;5.85;;
4053;SDS011;2042;47.956;9.222;2022-07-21T13:01:10;6.53;;;6.13;;
4053;SDS011;2042;47.956;9.222;2022-07-21T13:03:37;6.07;;;5.60;;
4053;SDS011;2042;47.956;9.222;2022-07-21T13:06:03;6.93;;;6.40;;
4053;SDS011;2042;47.956;9.222;2022-07-21T13:08:30;6.03;;;5.63;;
4053;SDS011;2042;47.956;9.222;2022-07-21T13:10:56;7.18;;;6.68;;
4053;SDS011;2042;47.956;9.222;2022-07-21T13:13:23;6.82;;;6.35;;
4053;SDS011;2042;47.956;9.222;2022-07-21T13:15:49;5.55;;;5.15;;
4053;SDS011;2042;47.956;9.222;2022-07-21T13:18:15;6.07;;;5.57;;
4053;SDS011;2042;47.956;9.222;2022-07-21T13:20:41;5.95;;;5.45;;
4053;SDS011;2042;47.956;9.222;2022-07-21T13:23:08;6.40;;;5.90;;
4053;SDS011;2042;47.956;9.222;2022-07-21T13:25:34;6.72;;;6.00;;
4053;SDS011;2042;47.956;9.222;2022-07-21T13:28:01;7.13;;;6.43;;
4053;SDS011;2042;47.956;9.222;2022-07-21T13:30:27;6.53;;;5.97;;
4053;SDS011;2042;47.956;9.222;2022-07-21T13:32:53;6.38;;;5.78;;
4053;SDS011;2042;47.956;9.222;2022-07-21T13:35:19;5.85;;;5.45;;
4053;SDS011;2042;47.956;9.222;2022-07-21T13:37:45;5.82;;;5.43;;
4053;SDS011;2042;47.956;9.222;2022-07-21T13:40:11;5.80;;;5.40;;
4053;SDS011;2042;47.956;9.222;2022-07-21T13:42:37;6.00;;;5.55;;
4053;SDS011;2042;47.956;9.222;2022-07-21T13:45:04;6.93;;;6.32;;
4053;SDS011;2042;47.956;9.222;2022-07-21T13:47:32;7.60;;;6.93;;
4053;SDS011;2042;47.956;9.222;2022-07-21T13:49:58;6.60;;;6.00;;
4053;SDS011;2042;47.956;9.222;2022-07-21T13:52:24;5.57;;;5.10;;
4053;SDS011;2042;47.956;9.222;2022-07-21T13:54:52;6.47;;;6.07;;
4053;SDS011;2042;47.956;9.222;2022-07-21T13:57:18;6.43;;;6.03;;
4053;SDS011;2042;47.956;9.222;2022-07-21T13:59:44;6.90;;;6.40;;
4053;SDS011;2042;47.956;9.222;2022-07-21T14:02:10;7.23;;;6.53;;
4053;SDS011;2042;47.956;9.222;2022-07-21T14:04:36;6.70;;;6.20;;
4053;SDS011;2042;47.956;9.222;2022-07-21T14:07:02;5.93;;;5.40;;
4053;SDS011;2042;47.956;9.222;2022-07-21T14:09:28;6.80;;;6.20;;
4053;SDS011;2042;47.956;9.222;2022-07-21T14:11:54;6.73;;;6.23;;
4053;SDS011;2042;47.956;9.222;2022-07-21T14:14:20;7.50;;;6.80;;
4053;SDS011;2042;47.956;9.222;2022-07-21T14:16:48;5.70;;;5.30;;
4053;SDS011;2042;47.956;9.222;2022-07-21T14:19:15;6.30;;;5.70;;
4053;SDS011;2042;47.956;9.222;2022-07-21T14:21:41;6.80;;;6.10;;
4053;SDS011;2042;47.956;9.222;2022-07-21T14:24:07;6.60;;;6.10;;
4053;SDS011;2042;47.956;9.222;2022-07-21T14:26:51;6.00;;;5.40;;
4053;SDS011;2042;47.956;9.222;2022-07-21T14:29:16;6.50;;;6.00;;
4053;SDS011;2042;47.956;9.222;2022-07-21T14:31:42;6.33;;;5.87;;
4053;SDS011;2042;47.956;9.222;2022-07-21T14:34:08;5.77;;;5.30;;
4053;SDS011;2042;47.956;9.222;2022-07-21T14:36:34;5.33;;;4.93;;
4053;SDS011;2042;47.956;9.222;2022-07-21T14:39:00;5.40;;;5.00;;
4053;SDS011;2042;47.956;9.222;2022-07-21T14:41:25;12.33;;;5.30;;
4053;SDS011;2042;47.956;9.222;2022-07-21T14:43:51;6.67;;;5.97;;
4053;SDS011;2042;47.956;9.222;2022-07-21T14:46:17;5.33;;;4.83;;
4053;SDS011;2042;47.956;9.222;2022-07-21T14:48:42;5.40;;;5.00;;
4053;SDS011;2042;47.956;9.222;2022-07-21T14:51:08;5.33;;;4.83;;
4053;SDS011;2042;47.956;9.222;2022-07-21T14:53:34;5.67;;;5.27;;
4053;SDS011;2042;47.956;9.222;2022-07-21T14:55:59;5.57;;;5.17;;
4053;SDS011;2042;47.956;9.222;2022-07-21T14:58:25;6.67;;;5.20;;
4053;SDS011;2042;47.956;9.222;2022-07-21T15:00:51;6.73;;;4.80;;
4053;SDS011;2042;47.956;9.222;2022-07-21T15:03:17;6.30;;;5.77;;
4053;SDS011;2042;47.956;9.222;2022-07-21T15:05:43;6.20;;;5.70;;
4053;SDS011;2042;47.956;9.222;2022-07-21T15:08:09;5.43;;;5.00;;
4053;SDS011;2042;47.956;9.222;2022-07-21T15:10:36;5.90;;;5.40;;
4053;SDS011;2042;47.956;9.222;2022-07-21T15:13:02;6.27;;;5.77;;
4053;SDS011;2042;47.956;9.222;2022-07-21T15:15:28;6.17;;;5.57;;
4053;SDS011;2042;47.956;9.222;2022-07-21T15:17:54;6.20;;;5.70;;
4053;SDS011;2042;47.956;9.222;2022-07-21T15:20:19;6.53;;;4.83;;
4053;SDS011;2042;47.956;9.222;2022-07-21T15:22:45;5.10;;;4.80;;
4053;SDS011;2042;47.956;9.222;2022-07-21T15:25:10;6.07;;;5.67;;
4053;SDS011;2042;47.956;9.222;2022-07-21T15:27:37;5.10;;;4.70;;
4053;SDS011;2042;47.956;9.222;2022-07-21T15:30:08;5.50;;;5.00;;
4053;SDS011;2042;47.956;9.222;2022-07-21T15:32:37;5.10;;;4.70;;
4053;SDS011;2042;47.956;9.222;2022-07-21T15:35:03;4.40;;;4.10;;
4053;SDS011;2042;47.956;9.222;2022-07-21T15:37:29;5.73;;;4.47;;
4053;SDS011;2042;47.956;9.222;2022-07-21T15:39:54;9.33;;;5.13;;
4053;SDS011;2042;47.956;9.222;2022-07-21T15:42:20;5.10;;;4.70;;
4053;SDS011;2042;47.956;9.222;2022-07-21T15:44:46;5.40;;;4.90;;
4053;SDS011;2042;47.956;9.222;2022-07-21T15:47:12;4.83;;;4.47;;
4053;SDS011;2042;47.956;9.222;2022-07-21T15:49:37;5.30;;;4.80;;
4053;SDS011;2042;47.956;9.222;2022-07-21T15:52:03;8.10;;;4.90;;
4053;SDS011;2042;47.956;9.222;2022-07-21T15:54:30;4.80;;;4.50;;